Time;durP1;ratioP1;P1;durP2;ratioP2;P2;SDS_P1;SDS_P2;PMS_P1;PMS_P2;Temp;Humidity;BMP_temperature;BMP_pressure;BME280_temperature;BME280_humidity;BME280_pressure;Samples;Min_cycle;Max_cycle;Signal;HPM_P1;HPM_P2
2022/06/22 00:01:03;;;;;;;7.00;3.50;;;;;;;15.39;66.31;101123.72;3567182;40;20057;-65
2022/06/22 00:03:33;;;;;;;4.50;3.60;;;;;;;15.36;66.18;101107.69;3568567;40;20061;-63
2022/06/22 00:06:01;;;;;;;4.90;4.15;;;;;;;15.24;66.50;101087.81;3570037;40;20060;-63
2022/06/22 00:08:37;;;;;;;8.13;4.60;;;;;;;15.33;66.93;101100.66;3568134;40;20118;-63
2022/06/22 00:11:15;;;;;;;7.28;4.55;;;;;;;15.33;66.94;101107.94;3567088;40;20053;-63
2022/06/22 00:13:55;;;;;;;6.47;4.90;;;;;;;15.26;67.35;101085.03;3570123;40;21865;-63
2022/06/22 00:16:36;;;;;;;8.32;5.35;;;;;;;15.34;67.73;101096.09;3568359;40;20041;-63
2022/06/22 00:19:37;;;;;;;6.80;5.60;;;;;;;15.33;67.97;101086.25;3567423;40;20053;-63
2022/06/22 00:22:03;;;;;;;9.27;5.72;;;;;;;15.33;68.32;101091.69;3565611;40;20116;-63
2022/06/22 00:24:39;;;;;;;10.07;6.10;;;;;;;15.31;68.79;101085.50;3569343;40;20056;-63
2022/06/22 00:27:37;;;;;;;7.82;5.70;;;;;;;15.30;68.92;101092.78;3567439;40;20103;-65
2022/06/22 00:30:26;;;;;;;8.25;5.95;;;;;;;15.30;68.72;101087.34;3566497;40;20051;-64
2022/06/22 00:33:13;;;;;;;8.75;5.90;;;;;;;15.32;68.65;101089.97;3566240;40;20080;-62
2022/06/22 00:35:50;;;;;;;9.68;5.95;;;;;;;15.29;69.18;101074.81;3570167;40;20053;-63
2022/06/22 00:38:30;;;;;;;8.10;6.40;;;;;;;14.98;69.22;101035.69;3565714;40;20382;-63
2022/06/22 00:41:15;;;;;;;10.27;6.38;;;;;;;15.20;69.65;101072.81;3567229;40;20060;-63
2022/06/22 00:43:41;;;;;;;8.20;6.65;;;;;;;15.19;69.60;101090.03;3567637;40;20082;-63
2022/06/22 00:46:23;;;;;;;8.80;6.43;;;;;;;14.94;70.02;101053.16;3568258;40;20105;-63
2022/06/22 00:48:55;;;;;;;10.45;6.68;;;;;;;15.17;69.72;101097.41;3574049;40;20108;-62
2022/06/22 00:51:31;;;;;;;8.63;7.18;;;;;;;15.15;69.90;101093.94;3572205;40;20061;-63
2022/06/22 00:54:05;;;;;;;9.13;6.82;;;;;;;15.04;70.13;101069.56;3566610;40;20088;-63
2022/06/22 00:56:36;;;;;;;8.57;7.22;;;;;;;15.14;70.29;101080.53;3568741;40;20083;-63
2022/06/22 00:59:58;;;;;;;11.73;7.47;;;;;;;15.11;70.69;101078.06;3571851;40;20056;-63
2022/06/22 01:02:52;;;;;;;13.50;7.40;;;;;;;15.06;70.90;101068.47;3568478;40;20066;-63
2022/06/22 01:05:35;;;;;;;12.00;7.35;;;;;;;15.03;71.31;101063.28;3568921;40;20049;-65
2022/06/22 01:08:49;;;;;;;11.07;6.97;;;;;;;14.98;71.33;101076.28;3566179;40;20333;-65
2022/06/22 01:12:16;;;;;;;10.65;7.70;;;;;;;14.97;72.10;101093.53;3557538;40;20057;-63
2022/06/22 01:15:12;;;;;;;11.82;7.65;;;;;;;14.96;72.21;101094.50;3568690;40;20384;-63
2022/06/22 01:17:53;;;;;;;11.50;8.45;;;;;;;14.93;72.03;101100.13;3565633;40;20112;-63
2022/06/22 01:20:39;;;;;;;10.48;7.85;;;;;;;14.92;72.06;101102.97;3568947;40;20065;-63
2022/06/22 01:23:45;;;;;;;9.98;7.45;;;;;;;14.93;71.58;101101.97;3566899;40;20064;-63
2022/06/22 01:26:38;;;;;;;12.05;8.25;;;;;;;14.89;72.26;101098.66;3569289;40;20084;-63
2022/06/22 01:29:19;;;;;;;9.23;7.80;;;;;;;14.83;72.46;101097.25;3569331;40;20107;-63
2022/06/22 01:32:01;;;;;;;9.90;7.80;;;;;;;14.79;72.34;101089.50;3572772;40;20107;-62
2022/06/22 01:34:39;;;;;;;11.90;8.40;;;;;;;14.79;72.92;101073.25;3568268;40;20048;-62
2022/06/22 01:37:15;;;;;;;12.63;8.60;;;;;;;14.74;73.25;101059.22;3570689;40;21600;-62
2022/06/22 01:39:41;;;;;;;14.10;9.05;;;;;;;14.69;73.74;101048.75;3572421;40;20616;-63
2022/06/22 01:42:34;;;;;;;10.43;8.55;;;;;;;14.66;73.86;101053.53;3571761;40;20126;-63
2022/06/22 01:45:22;;;;;;;12.40;9.00;;;;;;;14.63;74.47;101074.41;3570973;40;20060;-63
2022/06/22 01:48:05;;;;;;;13.32;9.35;;;;;;;14.61;74.62;101070.09;3571998;40;20096;-63
2022/06/22 01:51:15;;;;;;;16.80;9.02;;;;;;;14.65;74.40;101062.59;3572263;40;20057;-63
2022/06/22 01:53:54;;;;;;;13.55;9.27;;;;;;;14.62;74.57;101056.47;3574662;40;20059;-63
2022/06/22 01:56:34;;;;;;;11.60;9.13;;;;;;;14.63;74.85;101065.44;3571724;40;20061;-62
2022/06/22 01:59:15;;;;;;;16.58;9.45;;;;;;;14.65;75.14;101057.19;3572188;40;20048;-63
2022/06/22 02:02:21;;;;;;;13.52;9.68;;;;;;;14.65;74.74;101058.06;3571515;40;20063;-63
2022/06/22 02:04:59;;;;;;;13.30;10.40;;;;;;;14.62;75.32;101053.75;3567459;40;20104;-63
2022/06/22 02:07:44;;;;;;;10.73;9.45;;;;;;;14.62;75.48;101056.47;3571606;40;20071;-62
2022/06/22 02:10:40;;;;;;;15.98;10.27;;;;;;;14.60;75.43;101055.72;3573246;40;20092;-63
2022/06/22 02:13:34;;;;;;;12.88;10.40;;;;;;;14.57;75.86;101052.38;3568201;40;20134;-63
2022/06/22 02:16:26;;;;;;;14.20;9.50;;;;;;;14.58;75.86;101051.38;3561561;40;20056;-63
2022/06/22 02:19:15;;;;;;;14.63;10.38;;;;;;;14.55;76.24;101060.59;3574559;40;20126;-63
2022/06/22 02:21:47;;;;;;;12.95;10.18;;;;;;;14.58;76.53;101067.63;3571409;40;20067;-63
2022/06/22 02:24:52;;;;;;;15.10;10.55;;;;;;;14.60;76.60;101069.22;3568301;40;20053;-63
2022/06/22 02:27:29;;;;;;;13.02;10.75;;;;;;;14.58;76.62;101062.19;3559470;40;20064;-62
2022/06/22 02:29:59;;;;;;;14.63;10.80;;;;;;;13.93;76.37;100944.44;3572408;40;20080;-62
2022/06/22 02:32:35;;;;;;;15.68;10.10;;;;;;;14.59;76.34;101048.56;3567697;40;20058;-63
2022/06/22 02:35:02;;;;;;;10.95;9.65;;;;;;;14.58;76.51;101052.25;3572687;40;20051;-63
2022/06/22 02:37:38;;;;;;;12.68;10.55;;;;;;;14.59;76.50;101040.47;3574376;40;20043;-62
2022/06/22 02:40:14;;;;;;;12.25;10.63;;;;;;;14.58;76.83;101041.41;3574264;40;20065;-63
2022/06/22 02:45:25;;;;;;;15.80;10.70;;;;;;;14.60;76.38;101039.47;3575164;40;20154;-62
2022/06/22 02:48:27;;;;;;;15.50;10.20;;;;;;;14.57;75.46;101036.13;3573038;40;20061;-63
2022/06/22 02:51:16;;;;;;;11.85;10.27;;;;;;;14.54;75.61;101036.38;3570759;40;20344;-63
2022/06/22 02:53:45;;;;;;;14.25;11.00;;;;;;;14.51;75.67;101042.00;3574952;40;20064;-63
2022/06/22 02:56:31;;;;;;;13.15;10.70;;;;;;;14.48;75.40;101045.78;3571264;40;20057;-63
2022/06/22 02:58:57;;;;;;;14.30;10.45;;;;;;;14.45;75.24;101048.69;3569490;40;20139;-63
2022/06/22 03:01:30;;;;;;;15.43;10.50;;;;;;;14.38;75.75;101044.72;3573603;40;20422;-65
2022/06/22 03:04:06;;;;;;;14.23;10.73;;;;;;;14.41;75.94;101058.03;3570337;40;20079;-63
2022/06/22 03:06:37;;;;;;;13.35;10.43;;;;;;;14.37;75.51;101057.41;3569312;40;20057;-62
2022/06/22 03:09:07;;;;;;;15.45;10.73;;;;;;;14.35;75.76;101050.38;3569403;40;20068;-62
2022/06/22 03:11:42;;;;;;;15.68;10.70;;;;;;;14.32;75.20;101056.00;3572880;40;20455;-62
2022/06/22 03:14:30;;;;;;;13.70;11.35;;;;;;;14.02;76.48;101011.34;3571222;40;20068;-63
2022/06/22 03:17:04;;;;;;;15.65;12.02;;;;;;;13.93;77.45;100996.66;3570095;40;20134;-63
2022/06/22 03:19:45;;;;;;;15.73;11.88;;;;;;;14.17;76.89;101042.63;3572114;40;20053;-63
2022/06/22 03:22:38;;;;;;;16.48;12.43;;;;;;;14.15;76.82;101036.47;3570817;40;20054;-63
2022/06/22 03:25:41;;;;;;;16.13;12.05;;;;;;;14.14;77.45;101032.06;3571662;40;20060;-63
2022/06/22 03:28:18;;;;;;;14.32;11.73;;;;;;;14.12;77.31;101034.00;3571202;40;20060;-63
2022/06/22 03:30:51;;;;;;;15.75;11.98;;;;;;;14.12;78.13;101028.59;3571332;40;20098;-63
2022/06/22 03:33:29;;;;;;;16.15;12.77;;;;;;;14.10;77.93;101027.84;3571430;40;20137;-63
2022/06/22 03:36:07;;;;;;;19.45;12.73;;;;;;;14.08;78.82;101027.09;3570267;40;20075;-63
2022/06/22 03:38:45;;;;;;;18.50;12.43;;;;;;;14.10;78.57;101035.94;3572178;40;20438;-61
2022/06/22 03:41:20;;;;;;;13.65;12.32;;;;;;;14.12;78.03;101038.56;3570335;40;20135;-62
2022/06/22 03:44:00;;;;;;;16.98;13.23;;;;;;;14.10;78.66;101030.53;3569584;40;20060;-62
2022/06/22 03:46:55;;;;;;;17.33;14.02;;;;;;;14.13;79.16;101019.50;3568241;40;20068;-62
2022/06/22 03:49:45;;;;;;;15.52;13.25;;;;;;;14.14;78.64;101023.94;3570127;40;20284;-62
2022/06/22 03:52:41;;;;;;;17.05;14.32;;;;;;;14.15;78.97;101019.41;3573653;40;20088;-63
2022/06/22 03:55:15;;;;;;;16.98;12.70;;;;;;;14.20;79.13;101024.47;3572106;40;20099;-62
2022/06/22 03:57:51;;;;;;;19.83;14.25;;;;;;;14.21;79.02;101026.19;3569092;40;20068;-62
2022/06/22 04:00:19;;;;;;;18.65;14.43;;;;;;;14.21;79.14;101034.28;3572930;40;20089;-62
2022/06/22 04:02:47;;;;;;;19.98;14.50;;;;;;;14.22;79.58;101031.47;3569435;40;20068;-62
2022/06/22 04:05:31;;;;;;;19.10;14.77;;;;;;;14.25;79.44;101022.28;3569493;40;20044;-62
2022/06/22 04:07:57;;;;;;;17.48;13.93;;;;;;;14.24;79.47;101017.84;3568734;40;20060;-62
2022/06/22 04:10:50;;;;;;;20.20;15.38;;;;;;;14.25;79.22;101015.03;3569032;40;20059;-62
2022/06/22 04:13:35;;;;;;;16.97;14.53;;;;;;;14.27;79.64;101018.50;3568174;40;20057;-62
2022/06/22 04:16:33;;;;;;;18.63;15.35;;;;;;;14.32;79.30;101027.13;3572092;40;20289;-62
2022/06/22 04:19:14;;;;;;;22.63;15.13;;;;;;;14.33;79.41;101025.28;3569985;40;20063;-62
2022/06/22 04:21:59;;;;;;;19.25;14.55;;;;;;;14.20;79.33;101006.38;3576328;40;20442;-62
2022/06/22 04:24:44;;;;;;;19.80;15.00;;;;;;;14.38;79.29;101026.66;3563312;40;20099;-62
2022/06/22 04:27:26;;;;;;;20.35;14.88;;;;;;;14.41;79.04;101028.28;3569831;40;20049;-62
2022/06/22 04:30:24;;;;;;;21.52;17.40;;;;;;;14.44;79.39;101028.06;3567643;40;20056;-63
2022/06/22 04:33:19;;;;;;;22.92;16.92;;;;;;;14.46;79.19;101042.34;3566929;40;20052;-62
2022/06/22 04:35:59;;;;;;;17.58;15.02;;;;;;;14.49;78.94;101042.06;3570034;40;20053;-62
2022/06/22 04:38:49;;;;;;;18.10;15.32;;;;;;;14.51;79.31;101045.56;3568515;40;20949;-62
2022/06/22 04:41:38;;;;;;;21.05;16.20;;;;;;;14.54;79.03;101053.47;3570627;40;20380;-62
2022/06/22 04:44:13;;;;;;;22.67;16.70;;;;;;;14.56;78.76;101058.78;3569183;40;20129;-62
2022/06/22 04:46:46;;;;;;;24.35;15.32;;;;;;;14.60;79.20;101057.56;3568089;40;20056;-63
2022/06/22 04:49:35;;;;;;;;;;;;;;;14.65;78.54;101052.63;3568747;40;20058;-62
2022/06/22 04:52:11;;;;;;;20.05;14.50;;;;;;;14.69;78.75;101054.16;3569783;40;19939;-63
2022/06/22 04:54:42;;;;;;;22.08;16.08;;;;;;;14.73;78.47;101057.50;3567315;40;20065;-63
2022/06/22 04:57:21;;;;;;;19.98;14.98;;;;;;;14.68;78.37;101033.47;3570172;40;20065;-63
2022/06/22 04:59:49;;;;;;;17.30;14.88;;;;;;;14.83;78.38;101050.41;3569966;40;20053;-63
2022/06/22 05:02:23;;;;;;;18.48;14.63;;;;;;;14.87;77.95;101046.47;3569564;40;20067;-63
2022/06/22 05:05:03;;;;;;;18.77;15.80;;;;;;;14.86;77.95;101056.44;3568236;40;20091;-63
2022/06/22 05:07:48;;;;;;;18.35;15.32;;;;;;;14.97;78.07;101066.47;3573077;40;20063;-63
2022/06/22 05:10:51;;;;;;;20.17;15.63;;;;;;;15.04;77.67;101069.56;3568935;40;20057;-63
2022/06/22 05:13:44;;;;;;;22.17;15.55;;;;;;;15.09;77.81;101068.19;3563508;40;20127;-66
2022/06/22 05:16:16;;;;;;;20.10;16.07;;;;;;;15.16;77.44;101071.31;3568332;40;20048;-64
2022/06/22 05:18:46;;;;;;;20.77;16.58;;;;;;;15.21;77.26;101069.09;3571499;40;20118;-63
2022/06/22 05:21:38;;;;;;;20.30;15.13;;;;;;;15.28;77.57;101061.38;3568982;40;20048;-63
2022/06/22 05:24:26;;;;;;;18.70;15.05;;;;;;;15.37;76.85;101059.78;3569790;40;20056;-63
2022/06/22 05:26:58;;;;;;;20.50;15.02;;;;;;;15.44;77.09;101071.88;3577868;40;20120;-63
2022/06/22 05:29:39;;;;;;;16.50;14.75;;;;;;;15.52;76.74;101069.44;3574312;40;20289;-63
2022/06/22 05:32:17;;;;;;;17.13;14.90;;;;;;;15.59;76.62;101076.09;3567400;40;20049;-62
2022/06/22 05:34:49;;;;;;;16.58;14.52;;;;;;;15.64;76.37;101067.59;3570206;40;20100;-63
2022/06/22 05:37:39;;;;;;;19.10;14.95;;;;;;;15.75;76.17;101067.63;3564603;40;20060;-63
2022/06/22 05:40:07;;;;;;;18.17;15.07;;;;;;;15.81;75.95;101069.00;3563711;40;20049;-63
2022/06/22 05:42:34;;;;;;;17.77;15.73;;;;;;;15.85;75.59;101084.88;3557552;40;20069;-63
2022/06/22 05:45:00;;;;;;;23.80;15.40;;;;;;;15.90;75.40;101082.69;3565667;40;20323;-63
2022/06/22 05:47:32;;;;;;;16.98;14.68;;;;;;;15.88;75.11;101073.78;3575142;40;20059;-63
2022/06/22 05:50:20;;;;;;;17.10;14.73;;;;;;;16.04;74.70;101096.97;3570639;40;20053;-62
2022/06/22 05:52:58;;;;;;;18.58;14.10;;;;;;;15.82;74.69;101049.03;3564222;40;20049;-63
2022/06/22 05:56:02;;;;;;;15.65;13.93;;;;;;;16.23;73.67;101105.34;3574245;40;20702;-63
2022/06/22 05:58:55;;;;;;;18.65;13.85;;;;;;;16.36;73.64;101103.34;3574476;40;20063;-62
2022/06/22 06:01:46;;;;;;;17.20;13.50;;;;;;;16.52;73.49;101107.50;3576928;40;20597;-62
2022/06/22 06:04:34;;;;;;;17.70;13.95;;;;;;;16.65;71.96;101108.22;3575593;40;20145;-63
2022/06/22 06:07:15;;;;;;;15.68;13.30;;;;;;;16.76;71.00;101101.94;3570318;40;20056;-63
2022/06/22 06:09:41;;;;;;;14.93;12.82;;;;;;;16.92;71.44;101105.94;3571263;40;20049;-63
2022/06/22 06:12:30;;;;;;;18.35;13.15;;;;;;;17.04;71.23;101101.34;3576335;40;20372;-63
2022/06/22 06:14:56;;;;;;;13.40;11.93;;;;;;;17.11;69.96;101104.41;3572220;40;20048;-63
2022/06/22 06:17:38;;;;;;;14.80;12.75;;;;;;;17.21;70.77;101102.63;3575669;40;20321;-63
2022/06/22 06:20:15;;;;;;;17.73;12.43;;;;;;;17.33;69.59;101104.28;3570622;40;20041;-62
2022/06/22 06:22:41;;;;;;;14.25;12.80;;;;;;;17.51;69.32;101107.28;3576734;40;20063;-63
2022/06/22 06:28:20;;;;;;;14.63;11.50;;;;;;;18.02;67.69;101105.59;3566202;40;20064;-63
2022/06/22 06:31:06;;;;;;;14.65;11.98;;;;;;;18.22;66.21;101107.41;3575123;40;20056;-64
2022/06/22 06:33:39;;;;;;;16.67;12.00;;;;;;;18.43;65.64;101104.59;3567692;40;20045;-63
2022/06/22 06:36:41;;;;;;;14.50;10.82;;;;;;;18.77;64.91;101112.44;3581331;40;20310;-63
2022/06/22 06:39:18;;;;;;;12.43;10.57;;;;;;;18.96;63.40;101117.03;3577272;40;20040;-64
2022/06/22 06:42:03;;;;;;;16.40;11.55;;;;;;;19.16;63.12;101112.47;3569789;40;20060;-63
2022/06/22 06:44:38;;;;;;;18.27;11.88;;;;;;;19.39;63.08;101103.00;3573921;40;20052;-63
2022/06/22 06:47:15;;;;;;;13.02;10.48;;;;;;;19.52;61.35;101090.91;3573677;40;20083;-63
2022/06/22 06:49:51;;;;;;;14.35;10.38;;;;;;;19.71;60.71;101096.34;3576036;40;20060;-63
2022/06/22 06:52:31;;;;;;;14.48;10.38;;;;;;;19.94;60.19;101100.44;3570456;40;20056;-63
2022/06/22 06:55:14;;;;;;;12.30;10.02;;;;;;;20.08;58.53;101082.75;3573810;40;20099;-64
2022/06/22 06:57:59;;;;;;;12.55;9.82;;;;;;;20.12;58.15;101089.59;3573321;40;20053;-63
2022/06/22 07:00:29;;;;;;;15.18;10.43;;;;;;;20.13;57.80;101091.31;3577060;40;20493;-63
2022/06/22 07:02:56;;;;;;;13.75;10.20;;;;;;;20.08;58.13;101080.00;3572687;40;20049;-63
2022/06/22 07:05:26;;;;;;;12.05;9.98;;;;;;;20.05;58.13;101077.56;3575299;40;20086;-63
2022/06/22 07:08:14;;;;;;;11.40;10.27;;;;;;;20.06;58.72;101075.69;3582916;40;20051;-63
2022/06/22 07:10:57;;;;;;;11.57;9.63;;;;;;;20.07;58.46;101075.53;3574043;40;20067;-63
2022/06/22 07:13:51;;;;;;;12.25;8.80;;;;;;;20.11;57.58;101076.97;3584929;40;20108;-64
2022/06/22 07:16:22;;;;;;;13.70;9.88;;;;;;;20.24;57.85;101079.34;3575986;40;20044;-63
2022/06/22 07:19:17;;;;;;;12.48;9.27;;;;;;;20.46;57.53;101080.81;3579522;40;20060;-64
2022/06/22 07:22:00;;;;;;;15.82;9.75;;;;;;;20.63;57.76;101070.97;3582139;40;20055;-64
2022/06/22 07:24:38;;;;;;;12.68;9.20;;;;;;;20.72;55.87;101078.22;3579869;40;20049;-64
2022/06/22 07:27:16;;;;;;;13.35;9.43;;;;;;;20.84;55.94;101067.94;3578955;40;20057;-64
2022/06/22 07:30:31;;;;;;;13.18;9.15;;;;;;;21.03;55.04;101065.03;3572601;40;20054;-64
2022/06/22 07:33:36;;;;;;;11.43;8.30;;;;;;;21.16;54.69;101050.13;3567214;40;20090;-62
2022/06/22 07:36:23;;;;;;;13.80;8.20;;;;;;;21.20;55.01;101051.50;3573984;40;20053;-62
2022/06/22 07:39:13;;;;;;;11.75;8.52;;;;;;;21.25;54.61;101050.03;3569217;40;20059;-63
2022/06/22 07:41:39;;;;;;;14.27;8.93;;;;;;;21.31;54.76;101057.59;3569713;40;20069;-63
2022/06/22 07:44:22;;;;;;;11.95;8.32;;;;;;;21.54;52.67;101060.69;3575785;40;20040;-63
2022/06/22 07:47:08;;;;;;;10.50;7.90;;;;;;;21.65;51.86;101066.91;3575082;40;20053;-63
2022/06/22 07:49:54;;;;;;;15.77;8.38;;;;;;;21.71;52.96;101066.25;3569345;40;20428;-63
2022/06/22 07:52:33;;;;;;;12.13;8.02;;;;;;;21.68;53.19;101058.38;3573304;40;20052;-63
2022/06/22 07:56:00;;;;;;;18.23;7.72;;;;;;;21.78;53.33;101064.59;3559798;40;20402;-62
2022/06/22 07:58:40;;;;;;;10.85;7.25;;;;;;;21.76;51.12;101058.44;3567187;40;20520;-63
2022/06/22 08:01:12;;;;;;;8.25;6.18;;;;;;;21.91;51.05;101066.88;3570343;40;20358;-63
2022/06/22 08:03:44;;;;;;;9.80;6.70;;;;;;;22.05;50.96;101058.06;3577382;40;20073;-65
2022/06/22 08:06:28;;;;;;;13.45;7.22;;;;;;;22.07;49.89;101061.47;3571402;40;20041;-62
2022/06/22 08:09:03;;;;;;;;;;;;;;;22.13;49.78;101062.72;3570747;40;20052;-62
2022/06/22 08:11:39;;;;;;;11.90;5.70;;;;;;;22.21;49.22;101063.66;3564784;40;19935;-63
2022/06/22 08:14:35;;;;;;;10.20;5.30;;;;;;;22.31;48.93;101068.13;3564752;40;20054;-63
2022/06/22 08:17:14;;;;;;;8.52;5.85;;;;;;;22.56;47.34;101066.34;3571841;40;20074;-62
2022/06/22 08:19:42;;;;;;;9.18;5.40;;;;;;;22.83;47.35;101074.25;3573872;40;20062;-62
2022/06/22 08:22:12;;;;;;;7.20;5.72;;;;;;;23.01;46.20;101076.88;3573177;40;20056;-63
2022/06/22 08:24:46;;;;;;;7.97;5.00;;;;;;;23.13;47.29;101078.28;3566319;40;20057;-63
2022/06/22 08:27:23;;;;;;;11.60;6.72;;;;;;;23.32;47.23;101085.31;3570379;40;20054;-63
2022/06/22 08:29:52;;;;;;;10.52;6.63;;;;;;;23.66;47.76;101088.88;3575141;40;20060;-62
2022/06/22 08:32:33;;;;;;;8.80;5.70;;;;;;;23.89;46.70;101089.91;3574739;40;20052;-62
2022/06/22 08:35:18;;;;;;;7.93;5.85;;;;;;;24.31;44.84;101080.47;3574072;40;20561;-63
2022/06/22 08:38:03;;;;;;;12.63;8.00;;;;;;;24.28;45.16;101037.72;3579546;40;20345;-63
2022/06/22 08:40:52;;;;;;;9.25;5.68;;;;;;;24.59;44.25;101086.38;3568724;40;20093;-62
2022/06/22 08:43:39;;;;;;;6.22;4.72;;;;;;;24.67;42.49;101094.56;3571977;40;20059;-63
2022/06/22 08:46:48;;;;;;;8.73;5.00;;;;;;;24.76;42.59;101084.38;3573968;40;20353;-65
2022/06/22 08:49:44;;;;;;;9.00;4.30;;;;;;;24.92;40.60;101083.41;3571615;40;20056;-63
2022/06/22 08:52:31;;;;;;;7.70;4.65;;;;;;;25.16;41.34;101086.03;3572980;40;20113;-63
2022/06/22 08:55:32;;;;;;;6.95;4.00;;;;;;;25.44;41.51;101088.22;3570473;40;20305;-63
2022/06/22 08:58:15;;;;;;;6.97;4.40;;;;;;;25.52;40.23;101085.38;3569036;40;20064;-63
2022/06/22 09:00:57;;;;;;;8.13;3.97;;;;;;;25.69;39.33;101075.06;3572518;40;20053;-63
2022/06/22 09:04:04;;;;;;;6.50;4.30;;;;;;;25.82;40.56;101068.94;3572967;40;20123;-63
2022/06/22 09:06:59;;;;;;;5.22;3.88;;;;;;;25.77;38.68;101039.16;3574186;40;20304;-63
2022/06/22 09:09:55;;;;;;;9.95;3.55;;;;;;;26.21;37.63;101059.53;3573976;40;21253;-63
2022/06/22 09:12:52;;;;;;;4.75;3.20;;;;;;;26.38;37.86;101083.06;3572430;40;20064;-63
2022/06/22 09:15:35;;;;;;;4.13;3.30;;;;;;;26.59;37.18;101080.38;3570504;40;20059;-62
2022/06/22 09:18:44;;;;;;;4.05;3.28;;;;;;;26.66;36.87;101079.63;3573238;40;20088;-63
2022/06/22 09:22:04;;;;;;;6.32;2.72;;;;;;;26.68;35.68;101088.56;3566182;40;20148;-62
2022/06/22 09:25:02;;;;;;;5.45;2.35;;;;;;;26.78;35.57;101086.34;3568485;40;20429;-63
2022/06/22 09:28:16;;;;;;;4.15;2.22;;;;;;;26.97;34.20;101093.13;3570123;40;20056;-62
2022/06/22 09:31:04;;;;;;;;;;;;;;;27.08;34.14;101093.47;3570071;40;20053;-63
2022/06/22 09:34:00;;;;;;;4.82;2.65;;;;;;;27.25;33.71;101096.84;3568716;40;19939;-62
2022/06/22 09:37:18;;;;;;;4.50;2.50;;;;;;;27.38;33.40;101104.38;3568650;40;20429;-62
2022/06/22 09:40:05;;;;;;;5.20;2.60;;;;;;;27.50;32.93;101102.81;3573734;40;20407;-63
2022/06/22 09:43:04;;;;;;;6.40;2.67;;;;;;;27.48;34.56;101090.25;3573573;40;20056;-62
2022/06/22 09:46:17;;;;;;;4.68;2.40;;;;;;;27.58;32.94;101100.94;3575150;40;20415;-63
2022/06/22 09:49:22;;;;;;;6.93;3.13;;;;;;;27.58;33.12;101098.19;3570625;40;20079;-63
2022/06/22 09:52:19;;;;;;;5.10;2.85;;;;;;;27.68;34.51;101091.22;3569679;40;20119;-63
2022/06/22 09:58:31;;;;;;;4.68;2.55;;;;;;;28.00;33.25;101087.06;3576413;40;20062;-63
2022/06/22 10:01:40;;;;;;;5.10;3.00;;;;;;;27.84;33.42;101069.91;3574111;40;20373;-63
2022/06/22 10:04:56;;;;;;;4.85;2.30;;;;;;;28.00;34.08;101076.00;3572145;40;20052;-63
2022/06/22 10:07:46;;;;;;;7.47;2.92;;;;;;;28.11;33.19;101082.00;3570866;40;20100;-64
2022/06/22 10:10:42;;;;;;;5.28;2.42;;;;;;;28.19;32.38;101077.13;3569136;40;20053;-62
2022/06/22 10:13:48;;;;;;;5.03;2.28;;;;;;;28.29;32.82;101065.72;3572783;40;20056;-63
2022/06/22 10:17:04;;;;;;;3.38;2.25;;;;;;;28.33;32.63;101055.94;3567414;40;20052;-65
2022/06/22 10:20:28;;;;;;;5.22;2.20;;;;;;;28.46;31.31;101057.94;3544451;40;20505;-63
2022/06/22 10:23:21;;;;;;;6.28;2.40;;;;;;;28.53;32.69;101052.44;3544790;40;20101;-63
2022/06/22 10:26:05;;;;;;;3.22;2.22;;;;;;;28.72;31.30;101056.34;3574771;40;20085;-63
2022/06/22 10:28:51;;;;;;;5.18;2.20;;;;;;;28.79;30.88;101060.81;3574195;40;20085;-63
2022/06/22 10:32:04;;;;;;;7.22;2.63;;;;;;;28.93;33.07;101062.56;3567290;40;20072;-62
2022/06/22 10:34:41;;;;;;;5.15;2.60;;;;;;;28.91;31.17;101055.50;3570407;40;20133;-63
2022/06/22 10:38:03;;;;;;;6.28;2.78;;;;;;;28.96;30.53;101055.75;3579441;40;20044;-63
2022/06/22 10:47:52;;;;;;;4.78;2.08;;;;;;;29.12;30.33;101049.84;3569168;40;20044;-63
2022/06/22 10:50:20;;;;;;;5.18;2.40;;;;;;;29.24;30.17;101047.28;3571628;40;20306;-63
2022/06/22 10:53:09;;;;;;;5.82;2.28;;;;;;;29.29;28.37;101053.03;3577760;40;20569;-63
2022/06/22 10:56:14;;;;;;;4.85;2.63;;;;;;;29.25;30.54;101051.75;3571481;40;20049;-63
2022/06/22 10:59:46;;;;;;;4.05;2.38;;;;;;;29.39;30.23;101050.69;3569582;40;20127;-63
2022/06/22 11:03:09;;;;;;;3.75;2.10;;;;;;;29.58;28.35;101043.41;3573317;40;20121;-63
2022/06/22 11:05:53;;;;;;;5.63;2.72;;;;;;;29.63;29.32;101044.75;3562850;40;20045;-63
2022/06/22 11:08:42;;;;;;;4.82;2.30;;;;;;;29.68;27.88;101053.25;3566328;40;20407;-63
2022/06/22 11:11:42;;;;;;;4.30;2.10;;;;;;;29.73;28.07;101040.47;3574922;40;20121;-63
2022/06/22 11:15:05;;;;;;;3.90;2.25;;;;;;;30.00;27.83;101048.69;3566331;40;20122;-62
2022/06/22 11:17:49;;;;;;;3.83;1.80;;;;;;;30.32;28.11;101043.28;3572621;40;20064;-63
2022/06/22 11:20:44;;;;;;;4.03;2.42;;;;;;;30.33;28.67;101040.31;3576755;40;20067;-63
2022/06/22 11:23:38;;;;;;;8.93;2.60;;;;;;;30.20;27.56;101038.44;3572991;40;20053;-63
2022/06/22 11:33:12;;;;;;;5.32;2.22;;;;;;;30.33;25.31;101042.22;3569287;40;20059;-63
2022/06/22 11:36:08;;;;;;;5.20;2.30;;;;;;;30.38;26.68;101046.03;3559064;40;20057;-65
2022/06/22 11:39:27;;;;;;;2.42;1.98;;;;;;;30.75;27.10;101058.22;3570259;40;20462;-63
2022/06/22 11:42:31;;;;;;;4.30;2.42;;;;;;;30.90;27.47;101059.88;3567879;40;20318;-63
2022/06/22 11:49:04;;;;;;;4.93;2.05;;;;;;;30.94;26.98;101050.88;3569117;40;20541;-62
2022/06/22 11:52:20;;;;;;;4.63;2.15;;;;;;;30.91;27.11;101036.59;3569468;40;20116;-63
2022/06/22 11:55:13;;;;;;;4.63;2.40;;;;;;;30.98;26.08;101040.16;3572207;40;20049;-63
2022/06/22 11:58:05;;;;;;;3.85;1.75;;;;;;;31.20;26.03;101063.69;3566735;40;20048;-63
2022/06/22 12:01:17;;;;;;;4.63;2.15;;;;;;;31.45;25.18;101049.84;3567416;40;20052;-62
2022/06/22 12:04:21;;;;;;;4.18;2.20;;;;;;;31.90;24.26;101054.38;3570685;40;20057;-63
2022/06/22 12:07:05;;;;;;;6.00;2.30;;;;;;;31.91;26.69;101050.53;3573888;40;20057;-63
2022/06/22 12:09:50;;;;;;;3.53;1.80;;;;;;;31.99;24.53;101050.19;3567288;40;20041;-63
2022/06/22 12:13:00;;;;;;;3.95;1.90;;;;;;;32.17;24.06;101049.34;3566858;40;20045;-63
2022/06/22 12:15:57;;;;;;;4.03;2.13;;;;;;;32.28;24.11;101048.56;3565224;40;20057;-64
2022/06/22 12:19:21;;;;;;;6.45;2.08;;;;;;;32.24;23.96;101038.16;3568592;40;20768;-63
2022/06/22 12:22:19;;;;;;;2.90;1.80;;;;;;;32.30;24.74;101026.09;3571482;40;20119;-63
2022/06/22 12:25:29;;;;;;;3.97;1.85;;;;;;;32.34;23.36;101032.88;3570447;40;20393;-63
2022/06/22 12:28:35;;;;;;;1.88;1.70;;;;;;;32.14;23.04;101024.78;3571580;40;20061;-64
2022/06/22 12:31:20;;;;;;;4.70;2.10;;;;;;;32.32;24.50;101015.59;3564970;40;20053;-63
2022/06/22 12:34:13;;;;;;;2.70;1.80;;;;;;;32.20;23.80;101011.88;3571137;40;20402;-63
2022/06/22 12:36:49;;;;;;;2.13;1.50;;;;;;;32.46;24.40;101003.19;3575782;40;20053;-64
2022/06/22 12:39:25;;;;;;;2.55;1.48;;;;;;;32.49;23.56;100997.16;3568133;40;20376;-63
2022/06/22 12:42:30;;;;;;;3.60;1.60;;;;;;;32.49;23.50;100997.16;3572350;40;20052;-63
2022/06/22 12:45:37;;;;;;;2.75;1.40;;;;;;;32.79;22.32;100996.28;3572727;40;20048;-63
2022/06/22 12:48:42;;;;;;;2.95;1.15;;;;;;;33.11;24.03;100999.66;3564644;40;20355;-63
2022/06/22 12:51:16;;;;;;;2.45;1.50;;;;;;;32.82;23.54;100984.69;3573796;40;20052;-63
2022/06/22 12:54:04;;;;;;;4.00;1.60;;;;;;;32.75;23.57;100972.81;3570066;40;20052;-64
2022/06/22 12:57:02;;;;;;;3.63;1.50;;;;;;;32.75;22.80;100982.00;3569756;40;20053;-63
2022/06/22 12:59:52;;;;;;;2.83;1.40;;;;;;;32.86;22.76;100977.56;3566823;40;20125;-63
2022/06/22 13:02:27;;;;;;;5.00;1.90;;;;;;;32.69;23.25;100976.53;3570918;40;20079;-63
2022/06/22 13:05:08;;;;;;;2.72;1.52;;;;;;;32.64;23.30;100970.81;3573737;40;20099;-63
2022/06/22 13:07:43;;;;;;;3.95;1.50;;;;;;;32.74;24.33;100954.41;3569482;40;20057;-63
2022/06/22 13:10:20;;;;;;;3.42;1.73;;;;;;;32.51;22.52;100908.72;3573456;40;20116;-63
2022/06/22 13:13:08;;;;;;;3.45;1.65;;;;;;;32.55;23.42;100961.97;3570788;40;20107;-62
2022/06/22 13:15:48;;;;;;;2.28;1.60;;;;;;;32.40;23.17;100953.19;3570394;40;20057;-63